createdAt,value
2022-12-31T00:00:07.887Z,77.02
2022-12-31T00:02:34.578Z,76.57
2022-12-31T00:05:01.122Z,77.01
2022-12-31T00:07:28.183Z,76.76
2022-12-31T00:09:54.657Z,76.87
2022-12-31T00:12:21.145Z,76.55
2022-12-31T00:14:47.758Z,76.90
2022-12-31T00:17:14.384Z,76.36
2022-12-31T00:19:40.863Z,76.05
2022-12-31T00:22:07.471Z,76.08
2022-12-31T00:24:35.820Z,76.23
2022-12-31T00:27:02.391Z,76.36
2022-12-31T00:29:28.946Z,76.20
2022-12-31T00:31:55.591Z,75.94
2022-12-31T00:34:22.160Z,76.35
2022-12-31T00:36:48.970Z,76.67
2022-12-31T00:39:15.602Z,76.58
2022-12-31T00:41:43.940Z,76.60
2022-12-31T00:44:13.876Z,76.20
2022-12-31T00:49:06.471Z,76.78
2022-12-31T00:51:33.397Z,76.67
2022-12-31T00:54:00.113Z,76.69
2022-12-31T00:56:29.284Z,76.79
2022-12-31T00:58:55.991Z,76.54
2022-12-31T01:01:27.017Z,76.99
2022-12-31T01:03:57.669Z,77.24
2022-12-31T01:06:24.585Z,76.87
2022-12-31T01:08:52.103Z,76.66
2022-12-31T01:11:19.453Z,77.06
2022-12-31T01:13:47.170Z,76.78
2022-12-31T01:16:14.686Z,76.85
2022-12-31T01:18:41.564Z,77.08
2022-12-31T01:21:10.568Z,76.48
2022-12-31T01:23:39.415Z,76.95
2022-12-31T01:26:09.234Z,76.52
2022-12-31T01:28:36.655Z,76.19
2022-12-31T01:31:08.348Z,76.98
2022-12-31T01:33:35.320Z,76.29
2022-12-31T01:36:03.646Z,76.66
2022-12-31T01:38:30.234Z,76.61
2022-12-31T01:40:56.791Z,76.54
2022-12-31T01:43:23.381Z,76.89
2022-12-31T01:45:53.469Z,76.43
2022-12-31T01:48:25.325Z,76.61
2022-12-31T01:50:53.744Z,76.08
2022-12-31T01:53:20.964Z,76.84
2022-12-31T01:55:54.192Z,76.68
2022-12-31T01:58:25.824Z,76.19
2022-12-31T02:00:52.880Z,76.34
2022-12-31T02:03:22.015Z,76.24
2022-12-31T02:09:30.532Z,76.31
2022-12-31T02:11:57.046Z,75.96
2022-12-31T02:14:28.599Z,76.45
2022-12-31T02:17:22.701Z,76.71
2022-12-31T02:20:07.862Z,76.64
2022-12-31T02:22:49.319Z,76.93
2022-12-31T02:25:52.376Z,76.90
2022-12-31T02:29:00.510Z,76.85
2022-12-31T02:31:34.710Z,76.93
2022-12-31T02:34:16.119Z,76.22
2022-12-31T02:36:46.694Z,76.55
2022-12-31T02:39:14.948Z,76.51
2022-12-31T02:41:50.149Z,76.29
2022-12-31T02:44:24.482Z,76.39
2022-12-31T02:46:57.808Z,76.26
2022-12-31T02:49:33.627Z,76.22
2022-12-31T02:52:09.729Z,76.64
2022-12-31T02:54:51.351Z,76.47
2022-12-31T02:57:30.875Z,76.93
2022-12-31T03:00:26.049Z,76.20
2022-12-31T03:02:54.821Z,76.54
2022-12-31T03:05:23.966Z,76.47
2022-12-31T03:07:50.992Z,76.78
2022-12-31T03:10:17.650Z,76.90
2022-12-31T03:12:48.205Z,76.48
2022-12-31T03:15:24.789Z,76.01
2022-12-31T03:17:52.901Z,76.28
2022-12-31T03:20:39.176Z,76.05
2022-12-31T03:23:11.883Z,75.50
2022-12-31T03:25:41.181Z,75.89
2022-12-31T03:28:10.825Z,75.75
2022-12-31T03:30:43.407Z,76.16
2022-12-31T03:33:10.673Z,75.88
2022-12-31T03:35:38.297Z,76.07
2022-12-31T03:38:05.218Z,76.29
2022-12-31T03:40:32.796Z,76.27
2022-12-31T03:42:59.302Z,76.37
2022-12-31T03:45:25.921Z,76.44
2022-12-31T03:47:52.421Z,75.90
2022-12-31T03:50:19.563Z,75.62
2022-12-31T03:52:46.382Z,75.77
2022-12-31T03:55:13.486Z,76.36
2022-12-31T03:57:40.518Z,75.83
2022-12-31T04:00:10.080Z,75.26
2022-12-31T04:02:36.818Z,75.81
2022-12-31T04:05:03.736Z,75.96
2022-12-31T04:07:30.234Z,75.74
2022-12-31T04:09:56.987Z,75.38
2022-12-31T04:12:23.461Z,75.36
2022-12-31T04:14:50.658Z,75.55
2022-12-31T04:17:17.434Z,75.38
2022-12-31T04:19:43.856Z,75.14
2022-12-31T04:22:10.315Z,75.20
2022-12-31T04:24:36.770Z,75.40
2022-12-31T04:27:07.575Z,74.85
2022-12-31T04:29:35.347Z,75.33
2022-12-31T04:32:02.240Z,74.82
2022-12-31T04:34:28.720Z,75.59
2022-12-31T04:36:55.218Z,74.91
2022-12-31T04:39:21.888Z,74.86
2022-12-31T04:41:48.368Z,75.03
2022-12-31T04:44:15.204Z,75.32
2022-12-31T04:46:41.671Z,75.49
2022-12-31T04:49:08.578Z,75.71
2022-12-31T04:51:35.691Z,75.55
2022-12-31T04:54:02.352Z,75.39
2022-12-31T04:56:29.136Z,76.06
2022-12-31T04:58:56.048Z,75.66
2022-12-31T05:01:22.809Z,75.71
2022-12-31T05:03:49.802Z,76.09
2022-12-31T05:06:21.464Z,76.17
2022-12-31T05:08:48.196Z,75.86
2022-12-31T05:11:15.535Z,75.60
2022-12-31T05:13:43.070Z,75.48
2022-12-31T05:16:09.981Z,75.84
2022-12-31T05:18:37.509Z,75.86
2022-12-31T05:21:04.789Z,75.93
2022-12-31T05:23:31.300Z,75.83
2022-12-31T05:25:59.597Z,75.55
2022-12-31T05:28:26.594Z,76.17
2022-12-31T05:30:53.405Z,77.54
2022-12-31T05:33:20.617Z,78.98
2022-12-31T05:35:47.289Z,80.00
2022-12-31T05:38:13.746Z,81.07
2022-12-31T05:40:40.225Z,81.77
2022-12-31T05:43:06.810Z,82.07
2022-12-31T05:45:33.572Z,82.62
2022-12-31T05:48:00.323Z,83.22
2022-12-31T05:50:26.848Z,83.46
2022-12-31T05:52:53.312Z,83.44
2022-12-31T05:55:19.937Z,82.88
2022-12-31T05:57:46.491Z,83.17
2022-12-31T06:00:13.644Z,83.66
2022-12-31T06:02:40.423Z,83.77
2022-12-31T06:05:07.362Z,83.65
2022-12-31T06:07:33.919Z,83.87
2022-12-31T06:10:00.368Z,84.13
2022-12-31T06:12:26.919Z,83.41
2022-12-31T06:14:53.499Z,83.45
2022-12-31T06:17:20.630Z,83.34
2022-12-31T06:19:47.433Z,82.52
2022-12-31T06:22:14.219Z,82.93
2022-12-31T06:24:40.795Z,82.27
2022-12-31T06:27:07.342Z,82.00
2022-12-31T06:29:33.813Z,81.98
2022-12-31T06:32:00.313Z,81.85
2022-12-31T06:34:27.136Z,82.19
2022-12-31T06:36:53.603Z,81.43
2022-12-31T06:39:20.071Z,81.42
2022-12-31T06:41:46.636Z,80.62
2022-12-31T06:44:14.508Z,80.83
2022-12-31T06:46:41.070Z,80.53
2022-12-31T06:49:07.660Z,80.63
2022-12-31T06:51:34.278Z,80.18
2022-12-31T06:54:00.847Z,80.16
2022-12-31T06:56:34.278Z,80.47
2022-12-31T06:59:02.158Z,80.51
2022-12-31T07:01:57.623Z,79.81
2022-12-31T07:04:36.252Z,79.09
2022-12-31T07:07:16.062Z,79.09
2022-12-31T07:09:48.768Z,78.93
2022-12-31T07:12:54.010Z,78.27
2022-12-31T07:15:35.990Z,78.13
2022-12-31T07:18:20.840Z,78.02
2022-12-31T07:20:47.477Z,77.30
2022-12-31T07:23:14.239Z,77.50
2022-12-31T07:25:51.487Z,76.34
2022-12-31T07:29:05.101Z,76.29
2022-12-31T07:31:42.373Z,76.00
2022-12-31T07:34:26.009Z,75.94
2022-12-31T07:37:07.663Z,76.08
2022-12-31T07:40:11.305Z,75.55
2022-12-31T07:42:40.858Z,75.67
2022-12-31T07:45:16.323Z,75.47
2022-12-31T07:47:45.866Z,75.31
2022-12-31T07:50:19.319Z,75.25
2022-12-31T07:52:46.499Z,75.26
2022-12-31T07:55:13.072Z,74.69
2022-12-31T07:58:04.571Z,75.04
2022-12-31T08:00:31.451Z,74.67
2022-12-31T08:03:29.692Z,74.92
2022-12-31T08:06:08.053Z,74.07
2022-12-31T08:08:52.994Z,74.25
2022-12-31T08:11:55.297Z,74.23
2022-12-31T08:14:22.052Z,73.80
2022-12-31T08:16:49.037Z,74.30
2022-12-31T08:19:26.127Z,74.12
2022-12-31T08:21:59.300Z,73.89
2022-12-31T08:24:53.293Z,73.56
2022-12-31T08:27:34.664Z,73.65
2022-12-31T08:30:16.307Z,73.45
2022-12-31T08:33:41.212Z,73.00
2022-12-31T08:36:10.607Z,73.08
2022-12-31T08:38:42.890Z,72.64
2022-12-31T08:41:37.607Z,72.65
2022-12-31T08:44:10.087Z,72.01
2022-12-31T08:46:54.112Z,72.03
2022-12-31T08:49:20.917Z,72.10
2022-12-31T08:51:47.727Z,71.91
2022-12-31T08:54:14.511Z,71.67
2022-12-31T08:57:00.652Z,71.40
2022-12-31T08:59:54.438Z,71.05
2022-12-31T09:02:48.284Z,71.50
2022-12-31T09:05:53.087Z,71.38
2022-12-31T09:09:01.063Z,70.86
2022-12-31T09:12:04.560Z,70.56
2022-12-31T09:14:47.665Z,71.03
2022-12-31T09:17:36.283Z,70.81
2022-12-31T09:20:05.063Z,70.84
2022-12-31T09:22:32.952Z,70.35
2022-12-31T09:24:59.615Z,70.10
2022-12-31T09:27:40.525Z,70.01
2022-12-31T09:30:11.448Z,69.28
2022-12-31T09:33:00.317Z,69.03
2022-12-31T09:35:52.639Z,68.32
2022-12-31T09:38:28.869Z,67.71
2022-12-31T09:41:25.488Z,67.32
2022-12-31T09:44:27.088Z,67.43
2022-12-31T09:47:21.387Z,66.85
2022-12-31T09:50:18.014Z,66.05
2022-12-31T09:52:57.042Z,65.51
2022-12-31T09:55:33.639Z,64.58
2022-12-31T09:58:24.864Z,64.94
2022-12-31T10:01:15.944Z,63.73
2022-12-31T10:04:06.507Z,63.82
2022-12-31T10:06:53.435Z,63.97
2022-12-31T10:09:45.122Z,63.81
2022-12-31T10:12:26.755Z,64.17
2022-12-31T10:15:32.044Z,64.74
2022-12-31T10:18:18.761Z,64.31
2022-12-31T10:21:16.733Z,63.25
2022-12-31T10:24:03.369Z,62.81
2022-12-31T10:26:53.826Z,63.24
2022-12-31T10:29:54.926Z,63.34
2022-12-31T10:32:40.222Z,63.43
2022-12-31T10:35:29.284Z,63.80
2022-12-31T10:38:14.256Z,64.17
2022-12-31T10:41:17.444Z,63.81
2022-12-31T10:44:06.084Z,63.49
2022-12-31T10:46:50.963Z,63.89
2022-12-31T10:49:35.921Z,63.39
2022-12-31T10:52:08.692Z,63.44
2022-12-31T10:55:08.635Z,62.85
2022-12-31T10:57:58.723Z,63.80
2022-12-31T11:00:57.085Z,64.36
2022-12-31T11:03:35.737Z,63.77
2022-12-31T11:06:33.169Z,64.31
2022-12-31T11:09:17.886Z,65.41
2022-12-31T11:12:05.338Z,64.72
2022-12-31T11:15:02.823Z,64.49
2022-12-31T11:17:56.855Z,64.17
2022-12-31T11:20:57.348Z,64.47
2022-12-31T11:23:42.399Z,64.67
2022-12-31T11:26:27.321Z,64.40
2022-12-31T11:29:32.335Z,64.98
2022-12-31T11:32:01.797Z,64.98
2022-12-31T11:34:40.260Z,64.73
2022-12-31T11:37:33.637Z,64.27
2022-12-31T11:40:38.881Z,63.66
2022-12-31T11:43:20.048Z,63.51
2022-12-31T11:46:00.946Z,62.74
2022-12-31T11:49:04.910Z,62.73
2022-12-31T11:52:02.687Z,62.87
2022-12-31T11:54:49.749Z,62.86
2022-12-31T11:57:25.375Z,62.67
2022-12-31T11:59:59.693Z,62.22
2022-12-31T12:02:29.990Z,62.15
2022-12-31T12:05:03.714Z,62.42
2022-12-31T12:07:34.861Z,62.11
2022-12-31T12:10:04.534Z,61.75
2022-12-31T12:12:42.319Z,61.30
2022-12-31T12:15:11.395Z,60.76
2022-12-31T12:17:39.267Z,60.69
2022-12-31T12:20:18.443Z,60.12
2022-12-31T12:22:54.320Z,60.36
2022-12-31T12:25:23.831Z,60.57
2022-12-31T12:27:50.375Z,60.75
2022-12-31T12:30:22.729Z,60.69
2022-12-31T12:33:00.499Z,60.42
2022-12-31T12:35:30.508Z,61.03
2022-12-31T12:38:13.443Z,60.70
2022-12-31T12:40:40.403Z,60.45
2022-12-31T12:43:23.476Z,60.35
2022-12-31T12:45:52.320Z,60.48
2022-12-31T12:48:40.941Z,60.45
2022-12-31T12:51:25.479Z,60.32
2022-12-31T12:54:18.589Z,60.14
2022-12-31T12:57:00.072Z,60.57
2022-12-31T12:59:57.424Z,60.32
2022-12-31T13:02:48.758Z,60.34
2022-12-31T13:05:30.309Z,60.07
2022-12-31T13:08:05.652Z,59.71
2022-12-31T13:10:59.556Z,59.10
2022-12-31T13:14:01.730Z,59.40
2022-12-31T13:16:31.177Z,59.40
2022-12-31T13:19:30.664Z,59.73
2022-12-31T13:22:19.974Z,59.47
2022-12-31T13:25:18.551Z,59.63
2022-12-31T13:27:48.900Z,59.59
2022-12-31T13:30:20.088Z,59.70
2022-12-31T13:32:51.947Z,59.47
2022-12-31T13:35:47.444Z,59.65
2022-12-31T13:38:28.805Z,59.49
2022-12-31T13:40:57.970Z,59.57
2022-12-31T13:44:08.694Z,59.16
2022-12-31T13:46:44.515Z,59.30
2022-12-31T13:49:15.610Z,59.15
2022-12-31T13:51:52.608Z,59.47
2022-12-31T13:54:58.184Z,59.02
2022-12-31T13:57:36.595Z,58.87
2022-12-31T14:00:31.224Z,59.05
2022-12-31T14:03:17.349Z,58.76
2022-12-31T14:06:02.339Z,58.67
2022-12-31T14:08:29.058Z,58.12
2022-12-31T14:11:20.662Z,58.34
2022-12-31T14:14:01.038Z,58.48
2022-12-31T14:16:47.473Z,58.61
2022-12-31T14:19:31.719Z,58.48
2022-12-31T14:22:11.665Z,58.95
2022-12-31T14:24:46.771Z,58.47
2022-12-31T14:27:22.981Z,58.62
2022-12-31T14:29:57.722Z,57.95
2022-12-31T14:32:39.949Z,58.28
2022-12-31T14:35:24.024Z,58.16
2022-12-31T14:37:51.033Z,58.22
2022-12-31T14:40:45.466Z,58.67
2022-12-31T14:43:49.146Z,58.56
2022-12-31T14:46:31.727Z,58.45
2022-12-31T14:49:04.293Z,58.55
2022-12-31T14:51:31.010Z,58.55
2022-12-31T14:53:58.460Z,58.89
2022-12-31T14:56:43.127Z,59.06
2022-12-31T14:59:28.812Z,58.81
2022-12-31T15:01:56.976Z,59.10
2022-12-31T15:05:03.496Z,59.12
2022-12-31T15:07:52.702Z,59.37
2022-12-31T15:10:25.394Z,59.45
2022-12-31T15:13:30.381Z,60.07
2022-12-31T15:16:02.708Z,60.26
2022-12-31T15:18:55.215Z,60.11
2022-12-31T15:21:49.596Z,60.66
2022-12-31T15:24:20.355Z,60.51
2022-12-31T15:27:06.756Z,60.05
2022-12-31T15:29:36.841Z,60.60
2022-12-31T15:32:07.924Z,60.69
2022-12-31T15:34:36.905Z,60.35
2022-12-31T15:37:06.958Z,60.47
2022-12-31T15:39:42.809Z,60.16
2022-12-31T15:42:47.149Z,59.99
2022-12-31T15:45:26.061Z,60.38
2022-12-31T15:47:57.899Z,59.80
2022-12-31T15:50:25.908Z,60.41
2022-12-31T15:53:02.105Z,60.37
2022-12-31T15:55:48.593Z,60.33
2022-12-31T15:58:27.815Z,59.88
2022-12-31T16:01:12.951Z,60.42
2022-12-31T16:03:45.268Z,60.33
2022-12-31T16:06:14.339Z,59.79
2022-12-31T16:08:45.052Z,59.98
2022-12-31T16:11:12.117Z,60.33
2022-12-31T16:13:49.068Z,60.77
2022-12-31T16:16:28.848Z,60.38
2022-12-31T16:18:56.487Z,60.67
2022-12-31T16:21:37.451Z,60.17
2022-12-31T16:24:27.688Z,60.01
2022-12-31T16:26:58.703Z,60.17
2022-12-31T16:29:25.412Z,60.19
2022-12-31T16:31:53.716Z,60.33
2022-12-31T16:34:23.411Z,60.12
2022-12-31T16:36:57.908Z,60.27
2022-12-31T16:39:33.846Z,60.34
2022-12-31T16:42:18.570Z,60.22
2022-12-31T16:44:45.123Z,60.02
2022-12-31T16:47:19.842Z,59.94
2022-12-31T16:50:00.232Z,59.67
2022-12-31T16:52:32.240Z,59.91
2022-12-31T16:54:59.704Z,59.84
2022-12-31T16:57:30.278Z,59.70
2022-12-31T17:00:07.016Z,59.76
2022-12-31T17:02:33.480Z,59.25
2022-12-31T17:05:01.360Z,59.45
2022-12-31T17:07:30.744Z,59.40
2022-12-31T17:10:03.103Z,58.67
2022-12-31T17:12:52.749Z,58.83
2022-12-31T17:15:39.321Z,58.50
2022-12-31T17:18:07.049Z,58.60
2022-12-31T17:20:34.424Z,58.69
2022-12-31T17:23:05.241Z,58.75
2022-12-31T17:25:34.215Z,58.57
2022-12-31T17:28:23.858Z,58.15
2022-12-31T17:30:51.412Z,58.06
2022-12-31T17:33:20.823Z,58.32
2022-12-31T17:35:48.363Z,57.63
2022-12-31T17:38:17.510Z,57.69
2022-12-31T17:40:53.405Z,57.60
2022-12-31T17:43:22.260Z,57.29
2022-12-31T17:45:51.785Z,57.88
2022-12-31T17:48:19.924Z,57.56
2022-12-31T17:50:51.867Z,57.69
2022-12-31T17:53:19.092Z,57.58
2022-12-31T17:55:49.537Z,57.71
2022-12-31T17:58:29.166Z,57.27
2022-12-31T18:00:57.059Z,57.62
2022-12-31T18:03:23.832Z,57.37
2022-12-31T18:05:50.338Z,57.64
2022-12-31T18:08:16.821Z,57.45
2022-12-31T18:10:44.695Z,57.86
2022-12-31T18:13:17.523Z,57.52
2022-12-31T18:15:44.724Z,57.59
2022-12-31T18:18:26.337Z,57.47
2022-12-31T18:21:01.745Z,57.50
2022-12-31T18:23:37.806Z,57.78
2022-12-31T18:26:04.477Z,57.17
2022-12-31T18:28:30.919Z,57.85
2022-12-31T18:30:57.745Z,57.49
2022-12-31T18:33:25.782Z,57.59
2022-12-31T18:36:09.929Z,57.83
2022-12-31T18:38:36.966Z,57.62
2022-12-31T18:41:04.290Z,57.45
2022-12-31T18:43:31.158Z,58.14
2022-12-31T18:45:57.886Z,57.88
2022-12-31T18:48:24.502Z,57.84
2022-12-31T18:50:51.145Z,57.99
2022-12-31T18:53:22.568Z,58.49
2022-12-31T18:55:57.329Z,57.91
2022-12-31T18:58:24.143Z,58.42
2022-12-31T19:00:51.454Z,58.42
2022-12-31T19:03:21.442Z,58.77
2022-12-31T19:05:49.836Z,59.07
2022-12-31T19:08:21.840Z,59.02
2022-12-31T19:10:50.561Z,58.90
2022-12-31T19:13:19.101Z,58.80
2022-12-31T19:15:51.409Z,58.83
2022-12-31T19:18:17.842Z,59.61
2022-12-31T19:20:44.476Z,59.94
2022-12-31T19:23:31.059Z,59.75
2022-12-31T19:25:57.527Z,60.13
2022-12-31T19:28:26.482Z,59.54
2022-12-31T19:30:53.364Z,59.63
2022-12-31T19:33:20.270Z,59.71
2022-12-31T19:35:47.094Z,59.92
2022-12-31T19:38:26.724Z,59.93
2022-12-31T19:40:53.862Z,59.98
2022-12-31T19:43:22.880Z,59.94
2022-12-31T19:45:51.024Z,59.98
2022-12-31T19:48:20.897Z,59.76
2022-12-31T19:50:50.326Z,59.59
2022-12-31T19:53:23.143Z,59.44
2022-12-31T19:55:50.817Z,59.29
2022-12-31T19:58:26.038Z,59.36
2022-12-31T20:01:01.069Z,59.20
2022-12-31T20:03:28.946Z,59.22
2022-12-31T20:06:10.808Z,58.94
2022-12-31T20:08:38.197Z,58.64
2022-12-31T20:11:12.849Z,58.65
2022-12-31T20:13:40.664Z,58.60
2022-12-31T20:16:09.439Z,58.40
2022-12-31T20:18:38.076Z,57.70
2022-12-31T20:21:08.242Z,57.98
2022-12-31T20:23:35.026Z,57.57
2022-12-31T20:26:02.009Z,57.79
2022-12-31T20:28:28.934Z,57.28
2022-12-31T20:30:55.932Z,57.61
2022-12-31T20:33:22.591Z,57.16
2022-12-31T20:35:49.147Z,57.30
2022-12-31T20:38:15.695Z,57.03
2022-12-31T20:40:46.695Z,56.92
2022-12-31T20:43:13.715Z,56.64
2022-12-31T20:45:41.180Z,56.65
2022-12-31T20:48:07.693Z,56.52
2022-12-31T20:50:34.200Z,56.37
2022-12-31T20:53:00.759Z,56.06
2022-12-31T20:55:27.466Z,55.69
2022-12-31T20:57:53.985Z,55.38
2022-12-31T21:00:20.490Z,55.74
2022-12-31T21:02:55.517Z,55.60
2022-12-31T21:05:27.225Z,55.34
2022-12-31T21:07:53.944Z,55.09
2022-12-31T21:10:20.430Z,55.23
2022-12-31T21:12:53.203Z,55.26
2022-12-31T21:15:20.695Z,55.25
2022-12-31T21:17:47.316Z,55.03
2022-12-31T21:20:13.924Z,54.79
2022-12-31T21:22:40.382Z,55.05
2022-12-31T21:25:07.205Z,55.03
2022-12-31T21:27:35.520Z,55.00
2022-12-31T21:30:18.131Z,54.61
2022-12-31T21:32:45.216Z,55.04
2022-12-31T21:35:42.329Z,54.85
2022-12-31T21:38:02.658Z,54.46
2022-12-31T21:40:30.087Z,55.09
2022-12-31T21:42:56.907Z,54.77
2022-12-31T21:45:23.568Z,54.10
2022-12-31T21:48:08.392Z,54.21
2022-12-31T21:50:35.178Z,54.13
2022-12-31T21:53:01.803Z,54.02
2022-12-31T21:55:46.651Z,54.24
2022-12-31T21:58:25.989Z,53.93
2022-12-31T22:01:13.100Z,53.57
2022-12-31T22:03:39.843Z,53.45
2022-12-31T22:06:13.525Z,53.63
2022-12-31T22:08:45.069Z,53.49
2022-12-31T22:11:13.261Z,53.47
2022-12-31T22:13:40.454Z,53.21
2022-12-31T22:16:07.457Z,53.61
2022-12-31T22:18:38.611Z,53.50
2022-12-31T22:21:20.941Z,53.26
2022-12-31T22:23:53.031Z,53.48
2022-12-31T22:26:22.545Z,53.08
2022-12-31T22:28:49.138Z,53.33
2022-12-31T22:31:22.668Z,53.53
2022-12-31T22:33:49.271Z,53.16
2022-12-31T22:36:21.303Z,53.59
2022-12-31T22:38:49.551Z,53.23
2022-12-31T22:41:19.277Z,53.34
2022-12-31T22:43:48.454Z,53.08
2022-12-31T22:46:23.841Z,53.08
2022-12-31T22:48:52.047Z,53.13
2022-12-31T22:51:19.820Z,53.08
2022-12-31T22:53:46.372Z,53.10
2022-12-31T22:56:16.280Z,52.85
2022-12-31T22:58:43.815Z,52.65
2022-12-31T23:01:24.988Z,52.57
2022-12-31T23:03:53.693Z,52.60
2022-12-31T23:06:22.679Z,52.40
2022-12-31T23:09:08.747Z,52.56
2022-12-31T23:11:36.730Z,52.42
2022-12-31T23:14:22.452Z,52.17
2022-12-31T23:17:29.145Z,52.54
2022-12-31T23:20:12.501Z,52.50
2022-12-31T23:22:57.247Z,52.03
2022-12-31T23:25:23.703Z,52.27
2022-12-31T23:27:50.164Z,52.68
2022-12-31T23:30:16.691Z,52.40
2022-12-31T23:32:43.160Z,52.39
2022-12-31T23:35:10.159Z,52.23
2022-12-31T23:37:36.897Z,52.27
2022-12-31T23:40:03.711Z,52.04
2022-12-31T23:42:30.208Z,51.99
2022-12-31T23:44:56.699Z,51.98
2022-12-31T23:47:23.205Z,52.00
2022-12-31T23:49:49.744Z,51.60
2022-12-31T23:52:16.278Z,51.76
2022-12-31T23:54:42.800Z,51.98
2022-12-31T23:57:09.263Z,51.88
2022-12-31T23:59:35.745Z,51.29
